Observation data for Northwest San Angelo on 05/16/2018      Previous  Date  Next       Current Mesonet Observations  Soil Data  Daily Summary Page  Observations in Plain Language
KASU 160500Z 08009KT 20/14 A30 RMK A01 T02030143  RH  070%=      5-min Rain = 0
KASU 160505Z 09008KT 20/15 A30 RMK A01 T02010145  RH  072%=      5-min Rain = 0
KASU 160510Z 10008G13KT 20/14 A30 RMK A01 T02010144  RH  071%=      5-min Rain = 0
KASU 160515Z 10009KT 20/14 A30 RMK A01 T02010144  RH  071%=      5-min Rain = 0
KASU 160520Z 09008KT 20/15 A30 RMK A01 T02000145  RH  072%=      5-min Rain = 0
KASU 160525Z 10008KT 20/14 A30 RMK A01 T01990144  RH  072%=      5-min Rain = 0
KASU 160530Z 10009KT 20/14 A30 RMK A01 T01980144  RH  073%=      5-min Rain = 0
KASU 160535Z 10009KT 20/14 A30 RMK A01 T01980144  RH  072%=      5-min Rain = 0
KASU 160540Z 10009KT 20/14 A30 RMK A01 T01980144  RH  072%=      5-min Rain = 0
KASU 160545Z 10007KT 20/14 A30 RMK A01 T01980144  RH  073%=      5-min Rain = 0
KASU 160550Z 10006KT 20/14 A30 RMK A01 T01960144  RH  073%=      5-min Rain = 0
KASU 160555Z 11007KT 20/15 A30 RMK A01 T01950145  RH  074%=      5-min Rain = 0
KASU 160600Z 11007KT 20/14 A2999 RMK A01 T01960144  RH  074%=      5-min Rain = 0
KASU 160605Z 11007KT 20/15 A2999 RMK A01 T01950145  RH  074%=      5-min Rain = 0
KASU 160610Z 12007KT 20/15 A2999 RMK A01 T01950145  RH  074%=      5-min Rain = 0
KASU 160615Z 12006KT 19/15 A2999 RMK A01 T01940146  RH  075%=      5-min Rain = 0
KASU 160620Z 11006KT 19/15 A2999 RMK A01 T01930147  RH  076%=      5-min Rain = 0
KASU 160625Z 11006KT 19/15 A2999 RMK A01 T01930147  RH  076%=      5-min Rain = 0
KASU 160630Z 10005KT 19/15 A2999 RMK A01 T01920148  RH  077%=      5-min Rain = 0
KASU 160635Z 11004KT 19/15 A2999 RMK A01 T01920148  RH  078%=      5-min Rain = 0
KASU 160640Z 12005KT 19/15 A2998 RMK A01 T01910149  RH  078%=      5-min Rain = 0
KASU 160645Z 12004KT 19/15 A2997 RMK A01 T01900150  RH  079%=      5-min Rain = 0
KASU 160650Z 11003KT 19/15 A2997 RMK A01 T01890151  RH  080%=      5-min Rain = 0
KASU 160655Z 12004KT 19/15 A2996 RMK A01 T01880151  RH  080%=      5-min Rain = 0
KASU 160700Z 11004KT 19/15 A2996 RMK A01 T01880151  RH  081%=      5-min Rain = 0
KASU 160705Z 13002KT 19/15 A2996 RMK A01 T01870151  RH  081%=      5-min Rain = 0
KASU 160710Z 10003KT 19/15 A2995 RMK A01 T01860151  RH  082%=      5-min Rain = 0
KASU 160715Z 08004KT 19/15 A2995 RMK A01 T01850152  RH  083%=      5-min Rain = 0
KASU 160720Z 10003KT 18/15 A2994 RMK A01 T01840152  RH  084%=      5-min Rain = 0
KASU 160725Z 09002KT 18/15 A2994 RMK A01 T01840152  RH  084%=      5-min Rain = 0
KASU 160730Z 07001KT 18/15 A2995 RMK A01 T01830152  RH  084%=      5-min Rain = 0
KASU 160735Z 10002KT 18/15 A2995 RMK A01 T01840152  RH  084%=      5-min Rain = 0
KASU 160740Z 08003KT 18/15 A2994 RMK A01 T01840152  RH  083%=      5-min Rain = 0
KASU 160745Z 08003KT 18/15 A2994 RMK A01 T01830152  RH  084%=      5-min Rain = 0
KASU 160750Z 09004KT 18/15 A2994 RMK A01 T01820153  RH  085%=      5-min Rain = 0
KASU 160755Z 09003KT 18/15 A2993 RMK A01 T01810154  RH  086%=      5-min Rain = 0
KASU 160800Z 06004KT 18/15 A2994 RMK A01 T01810154  RH  086%=      5-min Rain = 0
KASU 160805Z 06003KT 18/15 A2994 RMK A01 T01810153  RH  086%=      5-min Rain = 0
KASU 160810Z 08003KT 18/15 A2994 RMK A01 T01810153  RH  086%=      5-min Rain = 0
KASU 160815Z 06004KT 18/15 A2994 RMK A01 T01800153  RH  086%=      5-min Rain = 0
KASU 160820Z 05002KT 18/15 A2994 RMK A01 T01810153  RH  086%=      5-min Rain = 0
KASU 160825Z 05003KT 18/15 A2994 RMK A01 T01810152  RH  085%=      5-min Rain = 0
KASU 160830Z 02002KT 18/15 A2994 RMK A01 T01820152  RH  084%=      5-min Rain = 0
KASU 160835Z 03003KT 18/15 A2995 RMK A01 T01830152  RH  084%=      5-min Rain = 0
KASU 160840Z 02002KT 18/15 A2996 RMK A01 T01840152  RH  083%=      5-min Rain = 0
KASU 160845Z 35004KT 19/15 A2996 RMK A01 T01850153  RH  083%=      5-min Rain = 0
KASU 160850Z 35010G15KT 19/15 A2998 RMK A01 T01850154  RH  084%=      5-min Rain = 0
KASU 160855Z 00011G17KT 19/15 A2999 RMK A01 T01910151  RH  079%=      5-min Rain = 0
KASU 160900Z 01007KT 20/15 A2999 RMK A01 T01980147  RH  074%=      5-min Rain = 0
KASU 160905Z 04002KT 20/15 A2998 RMK A01 T02000145  RH  072%=      5-min Rain = 0
KASU 160910Z 01004KT 20/15 A2999 RMK A01 T02010145  RH  072%=      5-min Rain = 0
KASU 160915Z 01006KT 20/15 A30 RMK A01 T02030145  RH  071%=      5-min Rain = 0
KASU 160920Z 03006KT 21/14 A30 RMK A01 T02050144  RH  069%=      5-min Rain = 0
KASU 160925Z 04006KT 21/15 A30 RMK A01 T02060145  RH  069%=      5-min Rain = 0
KASU 160930Z 04009G15KT 21/14 A30 RMK A01 T02060144  RH  069%=      5-min Rain = 0
KASU 160935Z 05007G12KT 21/14 A30 RMK A01 T02080142  RH  067%=      5-min Rain = 0
KASU 160940Z 05011G17KT 21/13 A30 RMK A01 T02120129  RH  060%=      5-min Rain = 0
KASU 160945Z 06015G23KT 21/11 A30 RMK A01 T02140109  RH  052%=      5-min Rain = 0
KASU 160950Z 06015G21KT 21/11 A30 RMK A01 T02110108  RH  053%=      5-min Rain = 0
KASU 160955Z 08015KT 20/11 A30 RMK A01 T02040113  RH  057%=      5-min Rain = 0
KASU 161000Z 09011G16KT 20/12 A2999 RMK A01 T01990117  RH  060%=      5-min Rain = 0
KASU 161005Z 08011KT 20/12 A30 RMK A01 T01960120  RH  062%=      5-min Rain = 0
KASU 161010Z 09009KT 19/12 A30 RMK A01 T01940123  RH  064%=      5-min Rain = 0
KASU 161015Z 09007KT 19/13 A30 RMK A01 T01930125  RH  066%=      5-min Rain = 0
KASU 161020Z 10005KT 19/13 A3001 RMK A01 T01930126  RH  066%=      5-min Rain = 0
KASU 161025Z 11004KT 20/13 A3001 RMK A01 T01950125  RH  065%=      5-min Rain = 0
KASU 161030Z 13004KT 20/13 A3001 RMK A01 T01950126  RH  066%=      5-min Rain = 0
KASU 161035Z 13006KT 20/13 A3001 RMK A01 T01950128  RH  067%=      5-min Rain = 0
KASU 161040Z 11007KT 20/13 A30 RMK A01 T01950127  RH  066%=      5-min Rain = 0
KASU 161045Z 11007KT 20/12 A30 RMK A01 T01980124  RH  063%=      5-min Rain = 0
KASU 161050Z 12008KT 20/12 A30 RMK A01 T02010121  RH  061%=      5-min Rain = 0
KASU 161055Z 12008KT 20/12 A30 RMK A01 T02000122  RH  062%=      5-min Rain = 0
KASU 161100Z 13008KT 20/12 A30 RMK A01 T01990124  RH  063%=      5-min Rain = 0
KASU 161105Z 12007KT 20/13 A3001 RMK A01 T01970125  RH  064%=      5-min Rain = 0
KASU 161110Z 13007KT 20/13 A3001 RMK A01 T01960126  RH  065%=      5-min Rain = 0
KASU 161115Z 12006KT 19/13 A3002 RMK A01 T01940127  RH  066%=      5-min Rain = 0
KASU 161120Z 11005KT 20/13 A3002 RMK A01 T01950128  RH  066%=      5-min Rain = 0
KASU 161125Z 11007KT 19/13 A3001 RMK A01 T01940128  RH  067%=      5-min Rain = 0
KASU 161130Z 12009KT 19/13 A30 RMK A01 T01940128  RH  067%=      5-min Rain = 0
KASU 161135Z 12013KT 19/13 A2999 RMK A01 T01940127  RH  066%=      5-min Rain = 0
KASU 161140Z 13014KT 19/13 A2998 RMK A01 T01940126  RH  066%=      5-min Rain = 0
KASU 161145Z 14015KT 20/12 A2997 RMK A01 T01980122  RH  062%=      5-min Rain = 0
KASU 161150Z 13013KT 20/12 A2997 RMK A01 T02020119  RH  060%=      5-min Rain = 0
KASU 161155Z 12015G21KT 21/11 A2997 RMK A01 T02100112  RH  055%=      5-min Rain = 0
KASU 161200Z 12016KT 22/11 A2997 RMK A01 T02170107  RH  051%=      5-min Rain = 0
KASU 161205Z 13014KT 22/11 A2997 RMK A01 T02150108  RH  051%=      5-min Rain = 0
KASU 161210Z 12015G20KT 22/10 A2996 RMK A01 T02180103  RH  049%=      5-min Rain = 0
KASU 161215Z 12015G21KT 22/10 A2997 RMK A01 T02220100  RH  047%=      5-min Rain = 0
KASU 161220Z 11013G19KT 23/10 A2997 RMK A01 T02250099  RH  045%=      5-min Rain = 0
KASU 161225Z 11011G16KT 23/10 A2997 RMK A01 T02260099  RH  045%=      5-min Rain = 0
KASU 161230Z 12012G17KT 23/10 A2997 RMK A01 T02290096  RH  044%=      5-min Rain = 0
KASU 161235Z 12012G17KT 23/09 A2997 RMK A01 T02330094  RH  042%=      5-min Rain = 0
KASU 161240Z 12011KT 24/09 A2997 RMK A01 T02350093  RH  041%=      5-min Rain = 0
KASU 161245Z 11011KT 24/09 A2997 RMK A01 T02350094  RH  041%=      5-min Rain = 0
KASU 161250Z 11011KT 23/10 A2997 RMK A01 T02340097  RH  042%=      5-min Rain = 0
KASU 161255Z 12010G15KT 23/10 A2997 RMK A01 T02340099  RH  043%=      5-min Rain = 0
KASU 161300Z 13010KT 24/10 A2997 RMK A01 T02350100  RH  043%=      5-min Rain = 0
KASU 161305Z 12009KT 24/10 A2997 RMK A01 T02360101  RH  043%=      5-min Rain = 0
KASU 161310Z 11007KT 24/10 A2998 RMK A01 T02380102  RH  043%=      5-min Rain = 0
KASU 161315Z 12004KT 24/11 A2998 RMK A01 T02410105  RH  043%=      5-min Rain = 0
KASU 161320Z 12004KT 25/11 A2999 RMK A01 T02450108  RH  043%=      5-min Rain = 0
KASU 161325Z 11004KT 25/10 A2999 RMK A01 T02450104  RH  042%=      5-min Rain = 0
KASU 161330Z 11004KT 25/11 A2999 RMK A01 T02460106  RH  042%=      5-min Rain = 0
KASU 161335Z 12003KT 25/11 A2999 RMK A01 T02490108  RH  042%=      5-min Rain = 0
KASU 161340Z 13003KT 25/11 A2999 RMK A01 T02500108  RH  042%=      5-min Rain = 0
KASU 161345Z 13003KT 25/11 A2999 RMK A01 T02510109  RH  042%=      5-min Rain = 0
KASU 161350Z 12004KT 25/11 A30 RMK A01 T02540106  RH  040%=      5-min Rain = 0
KASU 161355Z 14004KT 25/11 A30 RMK A01 T02540107  RH  040%=      5-min Rain = 0
KASU 161400Z 12003KT 25/11 A30 RMK A01 T02540107  RH  040%=      5-min Rain = 0
KASU 161405Z 06002KT 26/10 A30 RMK A01 T02610104  RH  038%=      5-min Rain = 0
KASU 161410Z 12003KT 26/10 A30 RMK A01 T02590103  RH  038%=      5-min Rain = 0
KASU 161415Z 16002KT 26/11 A30 RMK A01 T02580109  RH  040%=      5-min Rain = 0
KASU 161420Z 19002KT 26/11 A30 RMK A01 T02560109  RH  041%=      5-min Rain = 0
KASU 161425Z 21002KT 26/11 A30 RMK A01 T02570109  RH  040%=      5-min Rain = 0
KASU 161430Z 35002KT 26/11 A3001 RMK A01 T02610110  RH  040%=      5-min Rain = 0
KASU 161435Z 03001KT 27/10 A3001 RMK A01 T02680102  RH  036%=      5-min Rain = 0
KASU 161440Z 05002KT 27/10 A3001 RMK A01 T02700102  RH  036%=      5-min Rain = 0
KASU 161445Z 29001KT 27/11 A3001 RMK A01 T02700105  RH  036%=      5-min Rain = 0
KASU 161450Z 06002KT 27/10 A3002 RMK A01 T02710104  RH  036%=      5-min Rain = 0
KASU 161455Z 08004KT 27/11 A3002 RMK A01 T02730109  RH  037%=      5-min Rain = 0
KASU 161500Z 07005KT 28/11 A3002 RMK A01 T02750110  RH  036%=      5-min Rain = 0
KASU 161505Z 09004KT 28/11 A3002 RMK A01 T02760111  RH  036%=      5-min Rain = 0
KASU 161510Z 09005KT 28/11 A3003 RMK A01 T02760114  RH  037%=      5-min Rain = 0
KASU 161515Z 10005KT 28/12 A3003 RMK A01 T02760117  RH  038%=      5-min Rain = 0
KASU 161520Z 10007KT 28/12 A3003 RMK A01 T02760118  RH  038%=      5-min Rain = 0
KASU 161525Z 09008KT 28/11 A3003 RMK A01 T02770114  RH  037%=      5-min Rain = 0
KASU 161530Z 09006KT 28/12 A3003 RMK A01 T02750117  RH  038%=      5-min Rain = 0
KASU 161535Z 10007KT 28/12 A3003 RMK A01 T02780115  RH  037%=      5-min Rain = 0
KASU 161540Z 10008KT 28/11 A3003 RMK A01 T02770114  RH  037%=      5-min Rain = 0
KASU 161545Z 11009KT 27/12 A3003 RMK A01 T02740117  RH  038%=      5-min Rain = 0
KASU 161550Z 12008KT 28/12 A3004 RMK A01 T02750117  RH  038%=      5-min Rain = 0
KASU 161555Z 07007KT 28/12 A3004 RMK A01 T02790116  RH  037%=      5-min Rain = 0
KASU 161600Z 07006G11KT 28/11 A3004 RMK A01 T02820113  RH  036%=      5-min Rain = 0
KASU 161605Z 09006KT 29/11 A3004 RMK A01 T02850113  RH  035%=      5-min Rain = 0
KASU 161610Z 08005G11KT 29/12 A3004 RMK A01 T02870115  RH  035%=      5-min Rain = 0
KASU 161615Z 07006KT 29/11 A3004 RMK A01 T02890114  RH  034%=      5-min Rain = 0
KASU 161620Z 07007KT 29/11 A3004 RMK A01 T02930113  RH  033%=      5-min Rain = 0
KASU 161625Z 06009KT 29/11 A3004 RMK A01 T02860107  RH  033%=      5-min Rain = 0
KASU 161630Z 05010KT 28/11 A3004 RMK A01 T02840111  RH  035%=      5-min Rain = 0
KASU 161635Z 08008KT 29/12 A3004 RMK A01 T02860122  RH  037%=      5-min Rain = 0
KASU 161640Z 06008G13KT 29/13 A3004 RMK A01 T02860126  RH  038%=      5-min Rain = 0
KASU 161645Z 07010G15KT 29/14 A3004 RMK A01 T02880137  RH  040%=      5-min Rain = 0
KASU 161650Z 07009KT 29/13 A3004 RMK A01 T02870134  RH  040%=      5-min Rain = 0
KASU 161655Z 05009G14KT 28/14 A3004 RMK A01 T02830140  RH  042%=      5-min Rain = 0
KASU 161700Z 05008KT 29/14 A3004 RMK A01 T02860144  RH  043%=      5-min Rain = 0
KASU 161705Z 04008G13KT 28/14 A3003 RMK A01 T02800136  RH  042%=      5-min Rain = 0
KASU 161710Z 04007KT 28/13 A3003 RMK A01 T02820131  RH  040%=      5-min Rain = 0
KASU 161715Z 05008KT 28/13 A3003 RMK A01 T02830131  RH  040%=      5-min Rain = 0
KASU 161720Z 06007KT 28/13 A3003 RMK A01 T02820131  RH  040%=      5-min Rain = 0
KASU 161725Z 04006G11KT 28/13 A3002 RMK A01 T02830127  RH  039%=      5-min Rain = 0
KASU 161730Z 09008G14KT 29/13 A3002 RMK A01 T02850130  RH  039%=      5-min Rain = 0
KASU 161735Z 10007KT 29/13 A3002 RMK A01 T02870131  RH  039%=      5-min Rain = 0
KASU 161740Z 08008KT 29/13 A3002 RMK A01 T02900127  RH  038%=      5-min Rain = 0
KASU 161745Z 08010G15KT 29/12 A3002 RMK A01 T02860124  RH  037%=      5-min Rain = 0
KASU 161750Z 11008KT 29/12 A3001 RMK A01 T02860124  RH  037%=      5-min Rain = 0
KASU 161755Z 11009KT 29/13 A3001 RMK A01 T02900130  RH  038%=      5-min Rain = 0
KASU 161800Z 10009KT 29/12 A3001 RMK A01 T02890117  RH  035%=      5-min Rain = 0
KASU 161805Z 10008KT 29/11 A30 RMK A01 T02890114  RH  034%=      5-min Rain = 0
KASU 161810Z 10008KT 29/12 A30 RMK A01 T02900121  RH  036%=      5-min Rain = 0
KASU 161815Z 09006KT 29/12 A30 RMK A01 T02930118  RH  035%=      5-min Rain = 0
KASU 161820Z 12006KT 30/13 A30 RMK A01 T02960126  RH  036%=      5-min Rain = 0
KASU 161825Z 14004KT 30/13 A2999 RMK A01 T02960129  RH  036%=      5-min Rain = 0
KASU 161830Z 14006KT 30/13 A2999 RMK A01 T03000129  RH  036%=      5-min Rain = 0
KASU 161835Z 17004KT 30/13 A2999 RMK A01 T02990125  RH  035%=      5-min Rain = 0
KASU 161840Z 11004KT 30/13 A2999 RMK A01 T03010128  RH  035%=      5-min Rain = 0
KASU 161845Z 11005KT 30/11 A2999 RMK A01 T03030114  RH  032%=      5-min Rain = 0
KASU 161850Z 10005KT 31/13 A2999 RMK A01 T03090126  RH  033%=      5-min Rain = 0
KASU 161855Z 13005KT 31/12 A2999 RMK A01 T03070117  RH  032%=      5-min Rain = 0
KASU 161900Z 11005KT 31/11 A2998 RMK A01 T03080112  RH  031%=      5-min Rain = 0
KASU 161905Z 12006KT 31/12 A2998 RMK A01 T03110122  RH  032%=      5-min Rain = 0
KASU 161910Z 14008KT 31/13 A2998 RMK A01 T03140126  RH  032%=      5-min Rain = 0
KASU 161915Z 13005G10KT 31/12 A2998 RMK A01 T03080124  RH  033%=      5-min Rain = 0
KASU 161920Z 15007KT 31/11 A2997 RMK A01 T03130108  RH  029%=      5-min Rain = 0
KASU 161925Z 19006KT 31/10 A2997 RMK A01 T03110104  RH  028%=      5-min Rain = 0
KASU 161930Z 16008G13KT 31/11 A2997 RMK A01 T03140109  RH  029%=      5-min Rain = 0
KASU 161935Z 13007KT 31/11 A2997 RMK A01 T03130113  RH  030%=      5-min Rain = 0
KASU 161940Z 15007G12KT 32/12 A2996 RMK A01 T03160118  RH  030%=      5-min Rain = 0
KASU 161945Z 16009KT 31/11 A2996 RMK A01 T03140108  RH  029%=      5-min Rain = 0
KASU 161950Z 16007KT 32/11 A2996 RMK A01 T03160114  RH  030%=      5-min Rain = 0
KASU 161955Z 15006KT 32/12 A2996 RMK A01 T03160119  RH  031%=      5-min Rain = 0
KASU 162000Z 16007G12KT 32/12 A2996 RMK A01 T03220124  RH  030%=      5-min Rain = 0
KASU 162005Z 18007KT 32/12 A2996 RMK A01 T03180121  RH  031%=      5-min Rain = 0
KASU 162010Z 13007KT 32/12 A2996 RMK A01 T03180121  RH  031%=      5-min Rain = 0
KASU 162015Z 12007G13KT 32/12 A2995 RMK A01 T03170123  RH  031%=      5-min Rain = 0
KASU 162020Z 14008G13KT 32/12 A2995 RMK A01 T03160118  RH  030%=      5-min Rain = 0
KASU 162025Z 16006KT 32/12 A2995 RMK A01 T03180123  RH  031%=      5-min Rain = 0
KASU 162030Z 12007G12KT 32/13 A2995 RMK A01 T03200129  RH  032%=      5-min Rain = 0
KASU 162035Z 10006G13KT 32/13 A2995 RMK A01 T03180127  RH  032%=      5-min Rain = 0
KASU 162040Z 12006G11KT 32/13 A2995 RMK A01 T03170128  RH  032%=      5-min Rain = 0
KASU 162045Z 11006KT 32/13 A2995 RMK A01 T03180130  RH  032%=      5-min Rain = 0
KASU 162050Z 10006KT 32/13 A2994 RMK A01 T03190129  RH  032%=      5-min Rain = 0
KASU 162055Z 09006G11KT 32/13 A2994 RMK A01 T03160129  RH  033%=      5-min Rain = 0
KASU 162100Z 12007KT 32/13 A2994 RMK A01 T03190130  RH  032%=      5-min Rain = 0
KASU 162105Z 10007G12KT 32/13 A2994 RMK A01 T03200134  RH  033%=      5-min Rain = 0
KASU 162110Z 10008G14KT 32/13 A2994 RMK A01 T03190131  RH  033%=      5-min Rain = 0
KASU 162115Z 09007KT 32/13 A2994 RMK A01 T03200133  RH  033%=      5-min Rain = 0
KASU 162120Z 11009G15KT 32/14 A2993 RMK A01 T03230135  RH  033%=      5-min Rain = 0
KASU 162125Z 10008G13KT 32/13 A2993 RMK A01 T03210134  RH  033%=      5-min Rain = 0
KASU 162130Z 09008G13KT 32/14 A2993 RMK A01 T03230135  RH  033%=      5-min Rain = 0
KASU 162135Z 10009KT 32/13 A2993 RMK A01 T03210130  RH  032%=      5-min Rain = 0
KASU 162140Z 11009KT 32/13 A2992 RMK A01 T03210131  RH  032%=      5-min Rain = 0
KASU 162145Z 10010G16KT 32/13 A2992 RMK A01 T03210129  RH  032%=      5-min Rain = 0
KASU 162150Z 09011KT 32/13 A2992 RMK A01 T03210130  RH  032%=      5-min Rain = 0
KASU 162155Z 10010KT 32/13 A2991 RMK A01 T03220129  RH  032%=      5-min Rain = 0
KASU 162200Z 10010G16KT 32/13 A2991 RMK A01 T03210127  RH  031%=      5-min Rain = 0
KASU 162205Z 08012KT 32/13 A2991 RMK A01 T03230129  RH  031%=      5-min Rain = 0
KASU 162210Z 09010G15KT 32/13 A2991 RMK A01 T03240128  RH  031%=      5-min Rain = 0
KASU 162215Z 09014KT 32/13 A299 RMK A01 T03220127  RH  031%=      5-min Rain = 0
KASU 162220Z 10012G17KT 32/12 A299 RMK A01 T03190120  RH  030%=      5-min Rain = 0
KASU 162225Z 10012G18KT 32/12 A299 RMK A01 T03220123  RH  030%=      5-min Rain = 0
KASU 162230Z 10010G15KT 32/12 A299 RMK A01 T03230123  RH  030%=      5-min Rain = 0
KASU 162235Z 10010G16KT 32/12 A299 RMK A01 T03240124  RH  030%=      5-min Rain = 0
KASU 162240Z 10010G16KT 33/13 A2989 RMK A01 T03250125  RH  030%=      5-min Rain = 0
KASU 162245Z 09010KT 32/12 A2989 RMK A01 T03220123  RH  030%=      5-min Rain = 0
KASU 162250Z 09012KT 32/12 A2989 RMK A01 T03220124  RH  030%=      5-min Rain = 0
KASU 162255Z 09011G16KT 32/12 A2989 RMK A01 T03220124  RH  030%=      5-min Rain = 0
KASU 162300Z 09011KT 32/13 A2989 RMK A01 T03210126  RH  031%=      5-min Rain = 0
KASU 162305Z 09013KT 32/13 A2988 RMK A01 T03180125  RH  031%=      5-min Rain = 0
KASU 162310Z 09014G19KT 32/13 A2988 RMK A01 T03210131  RH  032%=      5-min Rain = 0
KASU 162315Z 09013KT 32/13 A2988 RMK A01 T03200130  RH  032%=      5-min Rain = 0
KASU 162320Z 09011G18KT 31/13 A2988 RMK A01 T03100128  RH  034%=      5-min Rain = 0
KASU 162325Z 10012G17KT 31/12 A2988 RMK A01 T03070124  RH  033%=      5-min Rain = 0
KASU 162330Z 09011KT 31/13 A2988 RMK A01 T03050125  RH  034%=      5-min Rain = 0
KASU 162335Z 09012KT 30/13 A2988 RMK A01 T03030127  RH  035%=      5-min Rain = 0
KASU 162340Z 09011KT 30/12 A2988 RMK A01 T03030124  RH  034%=      5-min Rain = 0
KASU 162345Z 09009KT 30/13 A2988 RMK A01 T03000130  RH  036%=      5-min Rain = 0
KASU 162350Z 08010KT 30/13 A2988 RMK A01 T02990126  RH  035%=      5-min Rain = 0
KASU 162355Z 08010KT 30/13 A2987 RMK A01 T02980128  RH  036%=      5-min Rain = 0
KASU 170000Z 09009KT 30/13 A2987 RMK A01 T02960131  RH  037%=      5-min Rain = 0
KASU 170005Z 08009KT 30/13 A2987 RMK A01 T02950130  RH  037%=      5-min Rain = 0
KASU 170010Z 08008KT 29/13 A2988 RMK A01 T02940129  RH  037%=      5-min Rain = 0
KASU 170015Z 08007KT 29/13 A2988 RMK A01 T02930128  RH  037%=      5-min Rain = 0
KASU 170020Z 07008KT 29/13 A2988 RMK A01 T02930125  RH  036%=      5-min Rain = 0
KASU 170025Z 08010KT 29/13 A2988 RMK A01 T02910130  RH  038%=      5-min Rain = 0
KASU 170030Z 10010KT 29/13 A2988 RMK A01 T02910127  RH  037%=      5-min Rain = 0
KASU 170035Z 10011KT 29/13 A2987 RMK A01 T02920125  RH  037%=      5-min Rain = 0
KASU 170040Z 10012G19KT 29/13 A2986 RMK A01 T02930126  RH  036%=      5-min Rain = 0
KASU 170045Z 11009KT 29/13 A2987 RMK A01 T02930128  RH  037%=      5-min Rain = 0
KASU 170050Z 01007G13KT 29/13 A2989 RMK A01 T02930127  RH  037%=      5-min Rain = 0
KASU 170055Z 03010G17KT 30/12 A2989 RMK A01 T02960124  RH  035%=      5-min Rain = 0
KASU 170100Z 08015KT 29/13 A2988 RMK A01 T02940129  RH  037%=      5-min Rain = 0
KASU 170105Z 08014KT 29/13 A2989 RMK A01 T02900132  RH  039%=      5-min Rain = 0
KASU 170110Z 10011KT 29/13 A2989 RMK A01 T02910129  RH  038%=      5-min Rain = 0
KASU 170115Z 15015G20KT 29/13 A2988 RMK A01 T02900130  RH  038%=      5-min Rain = 0
KASU 170120Z 18018G24KT 29/13 A2986 RMK A01 T02910126  RH  037%=      5-min Rain = 0
KASU 170125Z 19015G24KT 29/11 A2987 RMK A01 T02940113  RH  033%=      5-min Rain = 0
KASU 170130Z 24010G20KT 31/09 A2988 RMK A01 T03050085  RH  026%=      5-min Rain = 0
KASU 170135Z 30007G14KT 30/09 A2989 RMK A01 T03020085  RH  026%=      5-min Rain = 0
KASU 170140Z 05003KT 30/08 A2986 RMK A01 T02980083  RH  026%=      5-min Rain = 0
KASU 170145Z 35009KT 30/09 A2987 RMK A01 T02960090  RH  028%=      5-min Rain = 0
KASU 170150Z 03007G14KT 30/10 A2987 RMK A01 T02960104  RH  031%=      5-min Rain = 0
KASU 170155Z 06002KT 29/11 A2989 RMK A01 T02930111  RH  033%=      5-min Rain = 0
KASU 170200Z 09001KT 29/12 A2989 RMK A01 T02900115  RH  035%=      5-min Rain = 0
KASU 170205Z 11003G8KT 29/11 A2989 RMK A01 T02850114  RH  035%=      5-min Rain = 0
KASU 170210Z 11006KT 28/12 A2989 RMK A01 T02820122  RH  038%=      5-min Rain = 0
KASU 170215Z 12006G11KT 28/12 A2989 RMK A01 T02770122  RH  039%=      5-min Rain = 0
KASU 170220Z 09008KT 28/12 A2989 RMK A01 T02780124  RH  039%=      5-min Rain = 0
KASU 170225Z 13005KT 27/13 A299 RMK A01 T02740125  RH  040%=      5-min Rain = 0
KASU 170230Z 13005KT 27/13 A299 RMK A01 T02680127  RH  042%=      5-min Rain = 0
KASU 170235Z 11004KT 26/13 A2991 RMK A01 T02640128  RH  044%=      5-min Rain = 0
KASU 170240Z 05004KT 26/12 A2992 RMK A01 T02640124  RH  043%=      5-min Rain = 0
KASU 170245Z 06005KT 27/12 A2993 RMK A01 T02710120  RH  040%=      5-min Rain = 0
KASU 170250Z 10007KT 28/13 A2992 RMK A01 T02750127  RH  041%=      5-min Rain = 0
KASU 170255Z 09009KT 27/14 A299 RMK A01 T02680135  RH  045%=      5-min Rain = 0
KASU 170300Z 10006KT 27/13 A2991 RMK A01 T02650134  RH  045%=      5-min Rain = 0
KASU 170305Z 10004KT 27/13 A2992 RMK A01 T02650130  RH  044%=      5-min Rain = 0
KASU 170310Z 11006KT 26/13 A2992 RMK A01 T02630128  RH  044%=      5-min Rain = 0
KASU 170315Z 15007KT 25/13 A2993 RMK A01 T02540134  RH  048%=      5-min Rain = 0
KASU 170320Z 18009KT 25/12 A2993 RMK A01 T02510122  RH  045%=      5-min Rain = 0
KASU 170325Z 15008KT 25/12 A2993 RMK A01 T02540116  RH  043%=      5-min Rain = 0
KASU 170330Z 14007KT 25/12 A2993 RMK A01 T02520119  RH  044%=      5-min Rain = 0
KASU 170335Z 14005KT 25/12 A2993 RMK A01 T02450123  RH  047%=      5-min Rain = 0
KASU 170340Z 14005KT 24/13 A2993 RMK A01 T02410126  RH  050%=      5-min Rain = 0
KASU 170345Z 13005KT 24/13 A2993 RMK A01 T02380128  RH  051%=      5-min Rain = 0
KASU 170350Z 14003KT 24/13 A2993 RMK A01 T02370128  RH  052%=      5-min Rain = 0
KASU 170355Z 21002KT 24/13 A2993 RMK A01 T02350130  RH  053%=      5-min Rain = 0
KASU 170400Z 02001KT 23/13 A2994 RMK A01 T02320128  RH  053%=      5-min Rain = 0
KASU 170405Z 04004KT 23/13 A2994 RMK A01 T02320128  RH  053%=      5-min Rain = 0
KASU 170410Z 01002KT 24/13 A2994 RMK A01 T02370127  RH  051%=      5-min Rain = 0
KASU 170415Z 23002KT 23/13 A2994 RMK A01 T02320131  RH  054%=      5-min Rain = 0
KASU 170420Z 23002KT 23/13 A2995 RMK A01 T02310129  RH  053%=      5-min Rain = 0
KASU 170425Z 11000KT 23/13 A2994 RMK A01 T02270126  RH  054%=      5-min Rain = 0
KASU 170430Z 00000KT 23/12 A2994 RMK A01 T02300120  RH  051%=      5-min Rain = 0
KASU 170435Z 23001KT 23/14 A2995 RMK A01 T02260137  RH  058%=      5-min Rain = 0
KASU 170440Z 21000KT 22/13 A2995 RMK A01 T02190129  RH  058%=      5-min Rain = 0
KASU 170445Z 10001KT 22/13 A2995 RMK A01 T02210133  RH  058%=      5-min Rain = 0
KASU 170450Z 11002KT 21/15 A2995 RMK A01 T02140145  RH  066%=      5-min Rain = 0
KASU 170455Z 13004KT 21/15 A2995 RMK A01 T02090145  RH  068%=      5-min Rain = 0

Page generated in 0.0439 seconds.